Ms Signal — SFWL — position and weather

sailwx.info

Track history (hours):
 
Tides and Currents Weather Stations Pressure Air Temp Water Temp Dewpoint Dewpoint Depression Visibility Wind Speed Wind Dir Waves Ship Positions

Ms Signal

Last reported at 2017-Oct-19 12:31 UTC. Time now 2017-Oct-19 21:40 UTC.
Position N 59°22' E 018°06'.

Length 16 m.

Type: Diving. MMSI: 265648340.

Date/timePositionNaut miles runAvg speedWind from/ knotsBaromVisibWave heightAir tempDewpointWater temp
2017-Oct-19 12:31N 59°22' E 018°06'0 0.0
2017-Oct-19 12:00N 59°22' E 018°06'0 0.0
2017-Oct-19 10:11N 59°22' E 018°06'0 0.0
2017-Oct-19 09:57N 59°22' E 018°06'0 0.0
2017-Oct-19 09:30N 59°22' E 018°06'0 0.0
2017-Oct-19 08:53N 59°22' E 018°06'0 0.0
2017-Oct-19 08:17N 59°22' E 018°06'0 0.0
2017-Oct-19 07:53N 59°22' E 018°06'0 0.0
2017-Oct-19 07:29N 59°22' E 018°06'0 0.0
2017-Oct-19 06:59N 59°22' E 018°06'0 0.0
2017-Oct-19 06:29N 59°22' E 018°06'0 0.5
2017-Oct-19 05:59N 59°21' E 018°07'1 1.3
2017-Oct-19 05:14N 59°21' E 018°08'0 0.0
2017-Oct-19 05:00N 59°21' E 018°08'0 0.0
2017-Oct-18 13:37N 59°21' E 018°08'1 5.5
2017-Oct-18 13:29N 59°21' E 018°07'0 0.7
2017-Oct-18 12:45N 59°22' E 018°06'0 0.0
2017-Oct-18 12:27N 59°22' E 018°06'0 0.0
2017-Oct-18 11:51N 59°22' E 018°06'0 0.0
2017-Oct-18 11:27N 59°22' E 018°06'0 0.0
2017-Oct-18 10:51N 59°22' E 018°06'0 0.0
2017-Oct-18 10:27N 59°22' E 018°06'0 0.0
2017-Oct-18 09:58N 59°22' E 018°07'0 0.0
2017-Oct-18 09:28N 59°22' E 018°07'0 0.0
2017-Oct-18 08:58N 59°22' E 018°07'0 0.0
2017-Oct-18 08:22N 59°22' E 018°07'0 0.0
2017-Oct-18 06:58N 59°22' E 018°07'1 0.1
2017-Oct-17 13:24N 59°21' E 018°08'1 2.2
2017-Oct-17 12:52N 59°22' E 018°06'0 0.0
2017-Oct-17 12:22N 59°22' E 018°06'0 0.0
2017-Oct-17 11:46N 59°22' E 018°06'0 0.0
2017-Oct-17 11:28N 59°22' E 018°06'0 0.0
2017-Oct-17 10:55N 59°22' E 018°06'0 0.0
2017-Oct-17 10:28N 59°22' E 018°06'0 0.0
2017-Oct-17 09:49N 59°22' E 018°06'0 0.0
2017-Oct-17 09:19N 59°22' E 018°06'0 0.0
2017-Oct-17 08:55N 59°22' E 018°06'0 0.0
2017-Oct-17 08:07N 59°22' E 018°06'0 0.0
2017-Oct-17 07:55N 59°22' E 018°06'0 0.0
2017-Oct-17 07:25N 59°22' E 018°06'0 0.0
2017-Oct-17 06:58N 59°22' E 018°06'0 0.0
2017-Oct-17 06:19N 59°22' E 018°06'0 0.0
2017-Oct-17 05:55N 59°22' E 018°06'1 2.9
2017-Oct-17 05:30N 59°21' E 018°08'0 0.0
2017-Oct-17 04:54N 59°21' E 018°08'  
2017-Oct-13 08:40N 59°21' E 018°08'0 0.0
2017-Oct-13 08:28N 59°21' E 018°08'0 0.0
2017-Oct-13 07:52N 59°21' E 018°08'0 0.0
2017-Oct-13 07:28N 59°21' E 018°08'0 0.0
2017-Oct-13 06:55N 59°21' E 018°08'0 0.0
2017-Oct-13 06:19N 59°21' E 018°08'0 0.0
2017-Oct-13 05:55N 59°21' E 018°08'0 0.1
2017-Oct-13 05:30N 59°21' E 018°08'0 0.0
2017-Oct-12 13:47N 59°21' E 018°08'2 5.2
2017-Oct-12 13:30N 59°19' E 018°09'4 5.8
2017-Oct-12 12:53N 59°19' E 018°03'1 1.7
2017-Oct-12 12:29N 59°19' E 018°03'0 0.6
2017-Oct-12 11:53N 59°19' E 018°03'0 0.0
2017-Oct-12 11:29N 59°19' E 018°03'0 0.0
2017-Oct-12 11:01N 59°19' E 018°03'0 0.2
2017-Oct-12 10:30N 59°19' E 018°03'0 0.3
2017-Oct-12 10:00N 59°19' E 018°04'1 1.4
2017-Oct-12 09:30N 59°19' E 018°02'1 1.8
2017-Oct-12 08:58N 59°19' E 018°01'0 0.0
2017-Oct-12 08:28N 59°19' E 018°01'0 0.0
2017-Oct-12 07:58N 59°19' E 018°01'0 0.0
2017-Oct-12 07:22N 59°19' E 018°01'0 0.4
2017-Oct-12 07:00N 59°19' E 018°01'3 5.1
2017-Oct-12 06:27N 59°18' E 018°06'2 5.5
2017-Oct-12 06:00N 59°21' E 018°08'0 0.6
2017-Oct-12 05:24N 59°21' E 018°08'0 0.0
2017-Oct-12 04:54N 59°21' E 018°08'0 0.0
2017-Oct-10 17:22N 59°21' E 018°08'2 4.5
2017-Oct-10 17:00N 59°19' E 018°07'3 5.4
2017-Oct-10 16:30N 59°19' E 018°02'1 2.1
2017-Oct-10 15:51N 59°19' E 018°04'0 0.1
2017-Oct-10 15:28N 59°19' E 018°04'0 0.1
2017-Oct-10 14:59N 59°19' E 018°04'0 0.0
2017-Oct-10 13:59N 59°19' E 018°04'0 0.1
2017-Oct-10 13:30N 59°19' E 018°04'0 0.0
2017-Oct-10 12:47N 59°19' E 018°04'0 0.0
2017-Oct-10 12:23N 59°19' E 018°04'0 0.0
2017-Oct-10 11:53N 59°19' E 018°04'0 0.0
2017-Oct-10 11:26N 59°19' E 018°04'0 0.0
2017-Oct-10 10:56N 59°19' E 018°04'1 1.8
2017-Oct-10 10:28N 59°20' E 018°03'1 1.1
2017-Oct-10 09:42N 59°19' E 018°04'0 0.0
2017-Oct-10 09:30N 59°19' E 018°04'0 0.0
2017-Oct-10 08:57N 59°19' E 018°04'0 0.0
2017-Oct-10 08:27N 59°19' E 018°04'0 0.0
2017-Oct-10 07:42N 59°19' E 018°04'0 0.0
2017-Oct-10 07:29N 59°19' E 018°04'0 0.3
2017-Oct-10 07:00N 59°19' E 018°04'1 1.7
2017-Oct-10 06:16N 59°18' E 018°05'2 7.4
2017-Oct-10 05:59N 59°19' E 018°09'2 4.9
2017-Oct-10 05:29N 59°21' E 018°07'1 1.6
2017-Oct-10 04:55N 59°21' E 018°08'  
Track history (hours):
 
Tides and Currents Weather Stations Pressure Air Temp Water Temp Dewpoint Dewpoint Depression Visibility Wind Speed Wind Dir Waves Ship Positions

Ms Signal

Last reported at 2017-Oct-19 12:31 UTC. Time now 2017-Oct-19 21:40 UTC.
Position N 59°22' E 018°06'.

Length 16 m.

Type: Diving. MMSI: 265648340.

Date/timePositionNaut miles runAvg speedWind from/ knotsBaromVisibWave heightAir tempDewpointWater temp
2017-Oct-19 12:31N 59°22' E 018°06'0 0.0
2017-Oct-19 12:00N 59°22' E 018°06'0 0.0
2017-Oct-19 10:11N 59°22' E 018°06'0 0.0
2017-Oct-19 09:57N 59°22' E 018°06'0 0.0
2017-Oct-19 09:30N 59°22' E 018°06'0 0.0
2017-Oct-19 08:53N 59°22' E 018°06'0 0.0
2017-Oct-19 08:17N 59°22' E 018°06'0 0.0
2017-Oct-19 07:53N 59°22' E 018°06'0 0.0
2017-Oct-19 07:29N 59°22' E 018°06'0 0.0
2017-Oct-19 06:59N 59°22' E 018°06'0 0.0
2017-Oct-19 06:29N 59°22' E 018°06'0 0.5
2017-Oct-19 05:59N 59°21' E 018°07'1 1.3
2017-Oct-19 05:14N 59°21' E 018°08'0 0.0
2017-Oct-19 05:00N 59°21' E 018°08'0 0.0
2017-Oct-18 13:37N 59°21' E 018°08'1 5.5
2017-Oct-18 13:29N 59°21' E 018°07'0 0.7
2017-Oct-18 12:45N 59°22' E 018°06'0 0.0
2017-Oct-18 12:27N 59°22' E 018°06'0 0.0
2017-Oct-18 11:51N 59°22' E 018°06'0 0.0
2017-Oct-18 11:27N 59°22' E 018°06'0 0.0
2017-Oct-18 10:51N 59°22' E 018°06'0 0.0
2017-Oct-18 10:27N 59°22' E 018°06'0 0.0
2017-Oct-18 09:58N 59°22' E 018°07'0 0.0
2017-Oct-18 09:28N 59°22' E 018°07'0 0.0
2017-Oct-18 08:58N 59°22' E 018°07'0 0.0
2017-Oct-18 08:22N 59°22' E 018°07'0 0.0
2017-Oct-18 06:58N 59°22' E 018°07'1 0.1
2017-Oct-17 13:24N 59°21' E 018°08'1 2.2
2017-Oct-17 12:52N 59°22' E 018°06'0 0.0
2017-Oct-17 12:22N 59°22' E 018°06'0 0.0
2017-Oct-17 11:46N 59°22' E 018°06'0 0.0
2017-Oct-17 11:28N 59°22' E 018°06'0 0.0
2017-Oct-17 10:55N 59°22' E 018°06'0 0.0
2017-Oct-17 10:28N 59°22' E 018°06'0 0.0
2017-Oct-17 09:49N 59°22' E 018°06'0 0.0
2017-Oct-17 09:19N 59°22' E 018°06'0 0.0
2017-Oct-17 08:55N 59°22' E 018°06'0 0.0
2017-Oct-17 08:07N 59°22' E 018°06'0 0.0
2017-Oct-17 07:55N 59°22' E 018°06'0 0.0
2017-Oct-17 07:25N 59°22' E 018°06'0 0.0
2017-Oct-17 06:58N 59°22' E 018°06'0 0.0
2017-Oct-17 06:19N 59°22' E 018°06'0 0.0
2017-Oct-17 05:55N 59°22' E 018°06'1 2.9
2017-Oct-17 05:30N 59°21' E 018°08'0 0.0
2017-Oct-17 04:54N 59°21' E 018°08'  
2017-Oct-13 08:40N 59°21' E 018°08'0 0.0
2017-Oct-13 08:28N 59°21' E 018°08'0 0.0
2017-Oct-13 07:52N 59°21' E 018°08'0 0.0
2017-Oct-13 07:28N 59°21' E 018°08'0 0.0
2017-Oct-13 06:55N 59°21' E 018°08'0 0.0
2017-Oct-13 06:19N 59°21' E 018°08'0 0.0
2017-Oct-13 05:55N 59°21' E 018°08'0 0.1
2017-Oct-13 05:30N 59°21' E 018°08'0 0.0
2017-Oct-12 13:47N 59°21' E 018°08'2 5.2
2017-Oct-12 13:30N 59°19' E 018°09'4 5.8
2017-Oct-12 12:53N 59°19' E 018°03'1 1.7
2017-Oct-12 12:29N 59°19' E 018°03'0 0.6
2017-Oct-12 11:53N 59°19' E 018°03'0 0.0
2017-Oct-12 11:29N 59°19' E 018°03'0 0.0
2017-Oct-12 11:01N 59°19' E 018°03'0 0.2
2017-Oct-12 10:30N 59°19' E 018°03'0 0.3
2017-Oct-12 10:00N 59°19' E 018°04'1 1.4
2017-Oct-12 09:30N 59°19' E 018°02'1 1.8
2017-Oct-12 08:58N 59°19' E 018°01'0 0.0
2017-Oct-12 08:28N 59°19' E 018°01'0 0.0
2017-Oct-12 07:58N 59°19' E 018°01'0 0.0
2017-Oct-12 07:22N 59°19' E 018°01'0 0.4
2017-Oct-12 07:00N 59°19' E 018°01'3 5.1
2017-Oct-12 06:27N 59°18' E 018°06'2 5.5
2017-Oct-12 06:00N 59°21' E 018°08'0 0.6
2017-Oct-12 05:24N 59°21' E 018°08'0 0.0
2017-Oct-12 04:54N 59°21' E 018°08'0 0.0
2017-Oct-10 17:22N 59°21' E 018°08'2 4.5
2017-Oct-10 17:00N 59°19' E 018°07'3 5.4
2017-Oct-10 16:30N 59°19' E 018°02'1 2.1
2017-Oct-10 15:51N 59°19' E 018°04'0 0.1
2017-Oct-10 15:28N 59°19' E 018°04'0 0.1
2017-Oct-10 14:59N 59°19' E 018°04'0 0.0
2017-Oct-10 13:59N 59°19' E 018°04'0 0.1
2017-Oct-10 13:30N 59°19' E 018°04'0 0.0
2017-Oct-10 12:47N 59°19' E 018°04'0 0.0
2017-Oct-10 12:23N 59°19' E 018°04'0 0.0
2017-Oct-10 11:53N 59°19' E 018°04'0 0.0
2017-Oct-10 11:26N 59°19' E 018°04'0 0.0
2017-Oct-10 10:56N 59°19' E 018°04'1 1.8
2017-Oct-10 10:28N 59°20' E 018°03'1 1.1
2017-Oct-10 09:42N 59°19' E 018°04'0 0.0
2017-Oct-10 09:30N 59°19' E 018°04'0 0.0
2017-Oct-10 08:57N 59°19' E 018°04'0 0.0
2017-Oct-10 08:27N 59°19' E 018°04'0 0.0
2017-Oct-10 07:42N 59°19' E 018°04'0 0.0
2017-Oct-10 07:29N 59°19' E 018°04'0 0.3
2017-Oct-10 07:00N 59°19' E 018°04'1 1.7
2017-Oct-10 06:16N 59°18' E 018°05'2 7.4
2017-Oct-10 05:59N 59°19' E 018°09'2 4.9
2017-Oct-10 05:29N 59°21' E 018°07'1 1.6
2017-Oct-10 04:55N 59°21' E 018°08'  

Dump ship's entire track history